Time;durP1;ratioP1;P1;durP2;ratioP2;P2;SDS_P1;SDS_P2;PMS_P1;PMS_P2;Temp;Humidity;BMP_temperature;BMP_pressure;BME280_temperature;BME280_humidity;BME280_pressure;Samples;Min_cycle;Max_cycle;Signal;HPM_P1;HPM_P2
2021/05/31 00:02:06;;;;;;;;;7.00;7.00;;;;;19.39;43.31;101770.06;5085586;27;45431;-86
2021/05/31 00:04:31;;;;;;;;;8.33;6.00;;;;;19.35;43.57;101769.19;5084377;27;46047;-86
2021/05/31 00:07:13;;;;;;;;;8.33;6.67;;;;;19.26;43.74;101750.53;5082736;27;45388;-85
2021/05/31 00:09:41;;;;;;;;;9.33;7.00;;;;;19.24;43.10;101750.53;5087651;27;45263;-87
2021/05/31 00:12:10;;;;;;;;;6.33;6.33;;;;;19.19;43.76;101752.31;5083683;28;45540;-86
2021/05/31 00:14:36;;;;;;;;;8.33;5.67;;;;;19.28;43.55;101762.06;5081748;27;46183;-87
2021/05/31 00:17:02;;;;;;;;;7.00;7.00;;;;;19.24;43.42;101760.31;5080124;27;45238;-86
2021/05/31 00:19:27;;;;;;;;;9.67;8.00;;;;;19.20;43.38;101759.44;5080023;28;45814;-85
2021/05/31 00:21:53;;;;;;;;;6.67;6.67;;;;;19.20;43.63;101757.66;5083076;27;45246;-85
2021/05/31 00:24:19;;;;;;;;;6.67;6.67;;;;;19.15;43.16;101748.78;5082338;27;45159;-85
2021/05/31 00:26:44;;;;;;;;;8.33;7.67;;;;;19.10;43.20;101748.75;5081349;27;45532;-85
2021/05/31 00:29:10;;;;;;;;;9.33;8.33;;;;;19.15;42.95;101754.13;5080568;27;45256;-85
2021/05/31 00:31:36;;;;;;;;;9.00;7.33;;;;;19.07;43.19;101748.78;5078394;28;45337;-85
2021/05/31 00:34:02;;;;;;;;;8.33;6.00;;;;;19.08;43.69;101741.66;5079654;27;46288;-86
2021/05/31 00:36:28;;;;;;;;;7.00;7.00;;;;;19.09;43.92;101751.44;5079586;28;45475;-86
2021/05/31 00:38:54;;;;;;;;;7.00;7.00;;;;;18.98;43.75;101728.34;5077777;28;45516;-86
2021/05/31 00:41:21;;;;;;;;;8.00;6.67;;;;;19.08;43.62;101757.63;5079551;28;45358;-85
2021/05/31 00:43:46;;;;;;;;;8.00;6.33;;;;;18.98;43.70;101732.78;5077824;27;45632;-86
2021/05/31 00:46:12;;;;;;;;;5.33;4.67;;;;;18.96;43.70;101735.47;5077700;28;45412;-85
2021/05/31 00:48:38;;;;;;;;;8.00;6.33;;;;;19.02;43.42;101747.88;5079289;27;45357;-85
2021/05/31 00:51:06;;;;;;;;;8.67;6.00;;;;;18.90;43.50;101724.81;5095091;27;45299;-86
2021/05/31 00:53:32;;;;;;;;;9.00;7.00;;;;;19.00;43.60;101746.09;5078747;27;46112;-88
2021/05/31 00:55:59;;;;;;;;;4.00;4.00;;;;;18.93;43.76;101729.25;5078981;28;45436;-87
2021/05/31 00:58:27;;;;;;;;;9.00;7.00;;;;;18.97;43.68;101742.56;5080306;28;45539;-86
2021/05/31 01:00:54;;;;;;;;;5.33;5.00;;;;;18.89;43.92;101730.16;5080100;27;45179;-85
2021/05/31 01:03:19;;;;;;;;;7.67;7.67;;;;;18.94;43.48;101737.25;5079558;27;46434;-84
2021/05/31 01:05:46;;;;;;;;;7.00;7.00;;;;;18.86;44.16;101725.72;5078974;27;45447;-86
2021/05/31 01:08:17;;;;;;;;;8.33;7.00;;;;;18.84;44.44;101731.06;5078556;27;45556;-85
2021/05/31 01:11:07;;;;;;;;;8.00;8.00;;;;;18.89;43.96;101738.16;5077148;28;45384;-87
2021/05/31 01:13:59;;;;;;;;;8.00;6.00;;;;;18.87;43.77;101730.13;5077988;28;46143;-85
2021/05/31 01:16:33;;;;;;;;;6.67;6.67;;;;;18.78;43.66;101720.41;5078559;28;45147;-85
2021/05/31 01:19:04;;;;;;;;;6.00;6.00;;;;;18.80;43.37;101723.97;5078686;27;45348;-87
2021/05/31 01:21:58;;;;;;;;;7.00;7.00;;;;;18.84;43.89;101727.50;5079292;28;45296;-86
2021/05/31 01:24:40;;;;;;;;;6.67;6.67;;;;;18.81;43.87;101725.72;5064214;28;47273;-85
2021/05/31 01:27:21;;;;;;;;;8.33;5.00;;;;;18.82;43.59;101726.59;5077368;28;45244;-86
2021/05/31 01:29:52;;;;;;;;;7.67;7.00;;;;;18.75;43.46;101720.41;5077401;28;45333;-85
2021/05/31 01:32:22;;;;;;;;;6.67;6.67;;;;;18.73;43.81;101719.50;5077453;28;45420;-85
2021/05/31 01:34:49;;;;;;;;;7.00;7.00;;;;;18.78;43.41;101725.72;5077026;28;47536;-87
2021/05/31 01:37:20;;;;;;;;;9.00;7.00;;;;;18.72;43.95;101721.28;5078550;27;45167;-86
2021/05/31 01:39:49;;;;;;;;;8.00;6.00;;;;;18.72;43.91;101718.63;5077835;28;45248;-84
2021/05/31 01:42:15;;;;;;;;;7.00;7.00;;;;;18.64;43.59;101701.75;5079683;27;45302;-85
2021/05/31 01:44:43;;;;;;;;;7.33;6.33;;;;;18.72;43.79;101717.72;5082103;27;45214;-84
2021/05/31 01:47:09;;;;;;;;;8.00;7.67;;;;;18.65;43.63;101707.97;5099158;27;45333;-84
2021/05/31 01:49:35;;;;;;;;;7.00;7.00;;;;;18.62;43.85;101708.84;5084685;27;45329;-85
2021/05/31 01:52:01;;;;;;;;;7.00;7.00;;;;;18.63;44.19;101714.19;5082445;27;45391;-85
2021/05/31 01:54:29;;;;;;;;;7.00;7.00;;;;;18.59;44.11;101704.41;5079473;27;45346;-85
2021/05/31 01:56:55;;;;;;;;;7.33;7.33;;;;;18.56;43.97;101703.53;5078806;27;45423;-85
2021/05/31 01:59:21;;;;;;;;;8.00;6.67;;;;;18.51;44.31;101693.78;5078961;27;45324;-86
2021/05/31 02:01:48;;;;;;;;;7.33;6.00;;;;;18.51;44.14;101698.22;5079781;28;45439;-85
2021/05/31 02:04:15;;;;;;;;;7.33;5.00;;;;;18.49;43.93;101692.00;5079022;28;45683;-87
2021/05/31 02:06:40;;;;;;;;;8.33;6.00;;;;;18.52;44.11;101708.00;5079026;27;45468;-85
2021/05/31 02:09:06;;;;;;;;;6.00;6.00;;;;;18.48;44.25;101700.88;5078059;27;45349;-87
2021/05/31 02:11:36;;;;;;;;;7.33;6.00;;;;;18.39;44.27;101692.03;5079549;27;45322;-85
2021/05/31 02:14:07;;;;;;;;;7.00;6.33;;;;;18.38;44.27;101689.38;5076280;28;47454;-87
2021/05/31 02:16:53;;;;;;;;;8.00;6.00;;;;;18.44;44.07;101704.44;5078828;28;45247;-84
2021/05/31 02:19:19;;;;;;;;;7.00;6.00;;;;;18.32;44.33;101687.56;5077666;27;45337;-85
2021/05/31 02:21:47;;;;;;;;;8.33;7.33;;;;;18.35;44.25;101697.34;5094215;27;45439;-84
2021/05/31 02:24:14;;;;;;;;;8.33;8.33;;;;;18.34;44.22;101696.44;5078235;27;45445;-85
2021/05/31 02:26:41;;;;;;;;;7.33;6.00;;;;;18.27;44.17;101686.69;5078503;27;45298;-86
2021/05/31 02:29:06;;;;;;;;;6.67;6.67;;;;;18.25;44.14;101694.66;5078709;27;45329;-85
2021/05/31 02:31:32;;;;;;;;;7.00;5.67;;;;;18.21;43.41;101687.56;5078892;27;45341;-85
2021/05/31 02:33:58;;;;;;;;;7.00;7.00;;;;;18.17;44.10;101692.00;5078647;27;46069;-84
2021/05/31 02:36:24;;;;;;;;;5.00;5.00;;;;;18.14;44.33;101691.97;5077730;28;45382;-85
2021/05/31 02:38:49;;;;;;;;;6.00;6.00;;;;;18.14;44.52;101696.41;5076314;28;45270;-85
2021/05/31 02:41:16;;;;;;;;;7.33;5.67;;;;;18.13;44.53;101700.81;5082873;28;45297;-84
2021/05/31 02:43:42;;;;;;;;;11.00;7.00;;;;;18.15;44.90;101701.72;5089494;27;45640;-85
2021/05/31 02:46:07;;;;;;;;;7.67;5.67;;;;;18.09;44.37;101696.38;5091469;27;45382;-84
2021/05/31 02:48:34;;;;;;;;;7.67;6.00;;;;;18.02;44.41;101689.31;5087966;27;45373;-84
2021/05/31 02:50:59;;;;;;;;;9.33;7.00;;;;;18.08;44.41;101709.69;5091055;27;45456;-84
2021/05/31 02:53:26;;;;;;;;;6.00;6.00;;;;;18.01;44.47;101695.50;5091618;28;45349;-85
2021/05/31 02:55:52;;;;;;;;;8.00;6.33;;;;;18.04;44.99;101703.50;5086236;27;45353;-84
2021/05/31 02:58:18;;;;;;;;;6.00;5.67;;;;;17.98;45.10;101700.81;5080983;27;45310;-85
2021/05/31 03:00:44;;;;;;;;;7.33;6.00;;;;;17.94;44.65;101698.13;5077201;28;45541;-85
2021/05/31 03:03:09;;;;;;;;;6.00;6.00;;;;;17.95;44.25;101709.69;5078134;27;46592;-84
2021/05/31 03:05:36;;;;;;;;;6.00;5.67;;;;;17.90;44.59;101703.44;5079272;27;45349;-85
2021/05/31 03:08:02;;;;;;;;;5.00;5.00;;;;;17.83;44.93;101692.78;5082184;27;45324;-85
2021/05/31 03:10:29;;;;;;;;;8.33;7.00;;;;;17.97;44.88;101717.66;5081978;27;45316;-85
2021/05/31 03:12:55;;;;;;;;;6.00;6.00;;;;;17.93;44.92;101709.69;5081858;28;46061;-84
2021/05/31 03:15:21;;;;;;;;;7.00;7.00;;;;;17.94;44.96;101721.19;5080984;28;45384;-84
2021/05/31 03:17:49;;;;;;;;;7.00;6.00;;;;;17.93;45.16;101708.78;5084431;27;45222;-85
2021/05/31 03:20:15;;;;;;;;;5.33;5.33;;;;;17.92;45.25;101712.31;5084340;27;45239;-86
2021/05/31 03:22:41;;;;;;;;;9.33;7.67;;;;;17.82;45.18;101706.09;5083780;27;45368;-85
2021/05/31 03:25:09;;;;;;;;;6.00;6.00;;;;;17.87;45.04;101712.31;5098203;27;45486;-85
2021/05/31 03:27:35;;;;;;;;;8.00;6.00;;;;;17.84;45.35;101712.31;5087585;27;45420;-85
2021/05/31 03:30:00;;;;;;;;;6.00;6.00;;;;;17.79;45.52;101708.72;5090157;27;45298;-84
2021/05/31 03:32:25;;;;;;;;;8.00;7.00;;;;;17.84;45.36;101725.59;5088777;28;45341;-86
2021/05/31 03:34:51;;;;;;;;;7.00;7.00;;;;;17.76;45.54;101717.59;5082144;27;45435;-84
2021/05/31 03:37:16;;;;;;;;;10.33;9.67;;;;;17.80;45.68;101726.47;5080055;27;45495;-85
2021/05/31 03:39:42;;;;;;;;;8.00;6.33;;;;;17.70;45.69;101712.28;5081884;27;45371;-85
2021/05/31 03:42:08;;;;;;;;;7.33;6.00;;;;;17.69;45.19;101716.69;5080740;28;47397;-85
2021/05/31 03:44:34;;;;;;;;;5.67;5.33;;;;;17.66;45.54;101711.34;5081059;27;45337;-86
2021/05/31 03:46:59;;;;;;;;;8.33;5.00;;;;;17.66;45.57;101723.78;5081781;27;45288;-84
2021/05/31 03:49:25;;;;;;;;;11.67;7.67;;;;;17.55;45.84;101703.34;5081264;27;45248;-85
2021/05/31 03:51:50;;;;;;;;;6.33;6.00;;;;;17.62;45.94;101720.19;5081957;27;46108;-85
2021/05/31 03:54:15;;;;;;;;;7.00;6.67;;;;;17.56;45.49;101706.88;5080405;28;45341;-84
2021/05/31 03:56:41;;;;;;;;;7.00;7.00;;;;;17.57;45.66;101719.31;5082550;27;45301;-84
2021/05/31 03:59:07;;;;;;;;;6.67;6.33;;;;;17.55;45.58;101713.09;5082533;27;45323;-86
2021/05/31 04:01:33;;;;;;;;;10.00;7.00;;;;;17.58;45.64;101724.63;5087421;27;46387;-88
2021/05/31 04:03:59;;;;;;;;;6.00;6.00;;;;;17.57;45.88;101727.28;5093868;27;45431;-84
2021/05/31 04:11:40;;;;;;;;;7.33;7.33;;;;;17.44;45.97;101711.28;5080594;28;45840;-91
2021/05/31 04:14:09;;;;;;;;;6.00;6.00;;;;;17.54;45.87;101729.91;5081218;28;45239;-93
2021/05/31 04:16:37;;;;;;;;;8.00;6.33;;;;;17.50;46.02;101728.13;5082062;27;45329;-91
2021/05/31 04:19:05;;;;;;;;;9.00;7.00;;;;;17.47;46.16;101721.91;5080173;28;45314;-90
2021/05/31 04:21:31;;;;;;;;;5.67;5.67;;;;;17.40;46.05;101714.81;5081179;27;45280;-93
2021/05/31 04:23:57;;;;;;;;;10.00;7.67;;;;;17.47;46.21;101727.22;5081929;28;45392;-89
2021/05/31 04:26:23;;;;;;;;;10.00;7.00;;;;;17.45;45.98;101729.00;5085438;28;45495;-88
2021/05/31 04:28:49;;;;;;;;;6.67;6.67;;;;;17.28;46.38;101705.00;5081078;27;45234;-84
2021/05/31 04:31:15;;;;;;;;;8.00;7.00;;;;;17.42;46.12;101728.09;5080417;27;46349;-89
2021/05/31 04:33:40;;;;;;;;;8.33;7.33;;;;;17.31;45.99;101709.44;5080581;27;45331;-88
2021/05/31 04:36:06;;;;;;;;;7.00;6.67;;;;;17.30;46.18;101713.84;5079134;28;45371;-86
2021/05/31 04:38:32;;;;;;;;;8.00;8.00;;;;;17.31;46.05;101715.66;5095453;27;45391;-89
2021/05/31 04:40:57;;;;;;;;;8.33;7.00;;;;;17.28;46.27;101714.75;5079485;28;46329;-85
2021/05/31 04:43:23;;;;;;;;;7.33;6.33;;;;;17.33;46.47;101720.97;5079452;27;45341;-87
2021/05/31 04:45:49;;;;;;;;;4.33;4.00;;;;;17.22;46.17;101710.28;5079349;27;45317;-89
2021/05/31 04:48:14;;;;;;;;;8.33;8.33;;;;;17.16;46.99;101700.50;5079529;28;45319;-85
2021/05/31 04:50:40;;;;;;;;;6.67;6.67;;;;;17.20;46.67;101712.03;5078961;27;46130;-85
2021/05/31 04:53:05;;;;;;;;;7.00;6.00;;;;;17.20;46.82;101722.66;5078947;27;45344;-86
2021/05/31 04:55:31;;;;;;;;;9.00;7.00;;;;;17.15;46.78;101712.03;5078484;27;45291;-85
2021/05/31 04:57:56;;;;;;;;;7.67;7.67;;;;;17.12;46.35;101712.88;5078838;27;45312;-85
2021/05/31 05:00:22;;;;;;;;;8.00;8.00;;;;;17.12;46.54;101714.63;5077954;27;45583;-85
2021/05/31 05:02:47;;;;;;;;;8.67;8.00;;;;;17.13;46.85;101714.66;5078161;27;45423;-85
2021/05/31 05:05:13;;;;;;;;;8.00;7.00;;;;;17.15;46.52;101719.09;5078531;27;45416;-85
2021/05/31 05:07:46;;;;;;;;;9.33;8.33;;;;;17.13;46.67;101721.75;5077343;28;45404;-85
2021/05/31 05:10:22;;;;;;;;;9.33;7.00;;;;;17.13;46.86;101725.28;5078081;28;45639;-86
2021/05/31 05:12:50;;;;;;;;;7.67;7.67;;;;;17.10;46.86;101717.28;5078046;27;45503;-86
2021/05/31 05:15:19;;;;;;;;;8.00;7.00;;;;;17.19;46.83;101729.78;5079250;28;45316;-85
2021/05/31 05:17:46;;;;;;;;;8.67;7.67;;;;;17.12;46.80;101717.28;5082032;28;45495;-85
2021/05/31 05:20:13;;;;;;;;;7.67;6.00;;;;;17.18;46.81;101720.00;5079182;27;45910;-85
2021/05/31 05:22:38;;;;;;;;;7.00;7.00;;;;;17.17;46.87;101723.56;5081268;27;45479;-85
2021/05/31 05:25:05;;;;;;;;;8.33;8.33;;;;;17.19;46.81;101724.44;5083333;27;45326;-86
2021/05/31 05:27:30;;;;;;;;;10.00;9.00;;;;;17.21;46.63;101722.69;5076944;28;45362;-83
2021/05/31 05:29:56;;;;;;;;;10.00;8.33;;;;;17.17;46.91;101706.72;5093142;27;47233;-85
2021/05/31 05:32:21;;;;;;;;;9.33;8.00;;;;;17.21;46.92;101714.72;5078451;27;45311;-86
2021/05/31 05:34:48;;;;;;;;;11.00;7.00;;;;;17.14;46.81;101707.59;5078655;27;45254;-87
2021/05/31 05:37:17;;;;;;;;;10.00;7.67;;;;;17.20;47.01;101712.03;5077448;28;45570;-89
2021/05/31 05:42:46;;;;;;;;;7.67;7.00;;;;;17.23;47.04;101718.28;5078107;27;45299;-89
2021/05/31 05:47:46;;;;;;;;;8.67;7.00;;;;;17.23;47.02;101720.94;5078843;27;45407;-86
2021/05/31 05:50:18;;;;;;;;;9.33;7.00;;;;;17.23;46.98;101712.97;5081898;28;46095;-86
2021/05/31 05:52:44;;;;;;;;;10.33;8.33;;;;;17.21;47.08;101708.50;5082637;27;45435;-87
2021/05/31 05:55:11;;;;;;;;;9.33;7.67;;;;;17.29;47.20;101722.72;5082573;27;45341;-86
2021/05/31 05:57:38;;;;;;;;;7.33;7.00;;;;;17.17;47.13;101699.66;5082198;27;45315;-87
2021/05/31 06:00:25;;;;;;;;;8.67;8.67;;;;;17.29;47.52;101722.72;5081292;28;47594;-87
2021/05/31 06:02:52;;;;;;;;;10.00;8.67;;;;;17.28;47.36;101718.28;5079991;27;45439;-90
2021/05/31 06:05:18;;;;;;;;;9.33;8.33;;;;;17.29;47.54;101706.78;5078994;27;45245;-87
2021/05/31 06:07:44;;;;;;;;;8.33;7.67;;;;;17.30;47.41;101713.84;5078640;27;45373;-90
2021/05/31 06:10:10;;;;;;;;;9.00;7.67;;;;;17.31;47.35;101709.44;5076792;28;47671;-87
2021/05/31 06:12:36;;;;;;;;;8.00;7.00;;;;;17.34;47.32;101714.78;5077837;27;45361;-88
2021/05/31 06:15:04;;;;;;;;;10.00;9.00;;;;;17.34;47.43;101710.34;5078387;27;45285;-90
2021/05/31 06:17:29;;;;;;;;;8.00;7.00;;;;;17.36;47.39;101711.22;5078899;28;45244;-89
2021/05/31 06:20:01;;;;;;;;;10.00;9.00;;;;;17.31;47.06;101701.47;5078068;28;46237;-86
2021/05/31 06:22:28;;;;;;;;;11.33;10.33;;;;;17.39;47.19;101710.38;5078456;27;45136;-86
2021/05/31 06:24:53;;;;;;;;;13.00;9.67;;;;;17.38;47.19;101705.94;5077960;27;45401;-86
2021/05/31 06:27:19;;;;;;;;;8.33;7.67;;;;;17.39;46.74;101705.03;5077587;27;45402;-89
2021/05/31 06:29:44;;;;;;;;;6.67;6.67;;;;;17.43;47.52;101709.50;5077651;27;45639;-89
2021/05/31 06:32:09;;;;;;;;;8.00;8.00;;;;;17.36;47.64;101695.28;5079077;27;45378;-88
2021/05/31 06:34:35;;;;;;;;;9.33;7.33;;;;;17.45;47.36;101709.53;5076662;28;45317;-88
2021/05/31 06:37:00;;;;;;;;;9.67;8.33;;;;;17.40;47.35;101701.53;5078373;27;45278;-86
2021/05/31 06:39:25;;;;;;;;;9.33;9.00;;;;;17.41;47.51;101702.41;5081565;27;45450;-91
2021/05/31 06:41:52;;;;;;;;;11.00;8.67;;;;;17.41;47.48;101694.44;5083568;27;45273;-91
2021/05/31 06:44:17;;;;;;;;;7.67;7.67;;;;;17.41;47.19;101692.66;5086151;27;45431;-90
2021/05/31 06:46:44;;;;;;;;;10.00;9.00;;;;;17.55;47.29;101713.09;5083942;28;45328;-86
2021/05/31 06:49:09;;;;;;;;;9.00;7.33;;;;;17.46;47.54;101690.91;5081383;27;45482;-87
2021/05/31 06:51:35;;;;;;;;;8.67;8.67;;;;;17.58;47.69;101705.13;5081510;27;45316;-86
2021/05/31 06:54:00;;;;;;;;;8.33;7.67;;;;;17.61;47.97;101705.16;5083248;27;45380;-90
2021/05/31 06:56:26;;;;;;;;;6.00;6.00;;;;;17.63;47.44;101711.34;5081739;28;45258;-87
2021/05/31 06:58:52;;;;;;;;;9.00;7.67;;;;;17.56;47.73;101693.59;5082679;27;45603;-87
2021/05/31 07:01:18;;;;;;;;;6.67;5.67;;;;;17.66;47.72;101706.03;5081243;27;45626;-87
2021/05/31 07:03:43;;;;;;;;;9.00;7.00;;;;;17.57;47.84;101682.09;5081730;27;45333;-87
2021/05/31 07:06:09;;;;;;;;;7.00;7.00;;;;;17.56;47.54;101673.22;5081289;28;45444;-88
2021/05/31 07:08:34;;;;;;;;;11.00;9.67;;;;;17.72;47.34;101705.19;5078993;28;46655;-88
2021/05/31 07:11:04;;;;;;;;;7.33;7.00;;;;;17.75;47.48;101693.66;5081452;27;45484;-90
2021/05/31 07:13:30;;;;;;;;;8.67;8.67;;;;;17.64;47.51;101678.56;5078733;28;45380;-86
2021/05/31 07:15:56;;;;;;;;;7.00;6.33;;;;;17.70;47.49;101681.22;5080723;28;45384;-89
2021/05/31 07:18:22;;;;;;;;;10.33;8.67;;;;;17.80;47.90;101691.91;5080597;27;46167;-88
2021/05/31 07:20:48;;;;;;;;;7.00;7.00;;;;;17.82;48.01;101691.03;5080750;28;45414;-86
2021/05/31 07:23:15;;;;;;;;;7.00;6.00;;;;;17.77;47.60;101681.25;5081637;27;45468;-90
2021/05/31 07:25:40;;;;;;;;;8.33;7.00;;;;;17.75;47.48;101669.72;5080980;27;45434;-88
2021/05/31 07:28:06;;;;;;;;;9.33;8.00;;;;;17.88;47.79;101683.94;5080475;27;45445;-88
2021/05/31 07:30:32;;;;;;;;;9.00;9.00;;;;;17.88;47.47;101674.19;5096394;27;45357;-88
2021/05/31 07:32:57;;;;;;;;;12.00;10.00;;;;;17.90;47.12;101677.75;5079739;28;45420;-87
2021/05/31 07:35:23;;;;;;;;;10.67;8.00;;;;;17.93;46.52;101680.41;5079640;28;45457;-86
2021/05/31 07:37:48;;;;;;;;;9.00;9.00;;;;;17.97;46.69;101683.97;5085124;27;46253;-86
2021/05/31 07:40:15;;;;;;;;;8.67;8.33;;;;;18.00;45.67;101683.09;5092084;27;44632;-88
2021/05/31 07:42:41;;;;;;;;;13.00;10.00;;;;;17.96;46.26;101673.31;5080213;28;45225;-86
2021/05/31 07:45:08;;;;;;;;;10.67;9.00;;;;;17.97;46.08;101668.00;5080299;27;45339;-87
2021/05/31 07:47:34;;;;;;;;;10.67;9.00;;;;;17.98;46.01;101660.91;5078691;28;48126;-89
2021/05/31 07:50:00;;;;;;;;;8.67;7.67;;;;;18.07;46.08;101668.88;5078602;28;45416;-87
2021/05/31 07:52:27;;;;;;;;;8.67;8.67;;;;;18.15;46.64;101666.22;5079464;27;45329;-85
2021/05/31 07:54:53;;;;;;;;;8.33;8.33;;;;;18.24;46.11;101676.03;5081534;28;45287;-88
2021/05/31 07:57:19;;;;;;;;;10.67;10.67;;;;;18.28;46.49;101672.47;5091416;28;46144;-85
2021/05/31 07:59:48;;;;;;;;;8.33;8.00;;;;;18.34;45.96;101669.81;5091683;27;45354;-86
2021/05/31 08:02:15;;;;;;;;;10.33;8.33;;;;;18.28;44.90;101648.53;5087166;27;45422;-85
2021/05/31 08:04:41;;;;;;;;;9.00;6.33;;;;;18.44;43.18;101668.06;5081394;27;45358;-86
2021/05/31 08:07:09;;;;;;;;;8.00;8.00;;;;;18.46;43.90;101665.41;5080486;27;46331;-88
2021/05/31 08:09:35;;;;;;;;;10.67;9.00;;;;;18.63;43.60;101671.56;5080190;27;45386;-89
2021/05/31 08:12:01;;;;;;;;;6.00;6.00;;;;;18.78;42.95;101668.91;5079317;28;45306;-86
2021/05/31 08:14:26;;;;;;;;;11.67;10.33;;;;;18.90;44.23;101663.53;5079856;27;45290;-86
2021/05/31 08:16:58;;;;;;;;;9.00;8.67;;;;;19.15;43.87;101662.59;5079174;28;45319;-90
2021/05/31 08:19:26;;;;;;;;;10.67;8.00;;;;;19.48;43.81;101658.00;5079673;27;45309;-86
2021/05/31 08:21:52;;;;;;;;;11.00;11.00;;;;;19.83;43.70;101660.50;5079154;28;45317;-89
2021/05/31 08:24:19;;;;;;;;;13.67;10.00;;;;;20.10;43.49;101654.09;5078197;28;45427;-86
2021/05/31 08:26:45;;;;;;;;;9.00;8.00;;;;;20.41;43.15;101636.91;5077602;28;47286;-86
2021/05/31 08:29:11;;;;;;;;;9.67;9.00;;;;;20.66;42.68;101630.47;5098365;27;45348;-85
2021/05/31 08:31:37;;;;;;;;;11.00;8.00;;;;;20.97;42.20;101630.13;5085244;27;45285;-86
2021/05/31 08:34:02;;;;;;;;;8.00;7.67;;;;;21.26;41.69;101636.00;5085075;27;45225;-89
2021/05/31 08:36:28;;;;;;;;;9.00;9.00;;;;;21.60;41.04;101634.66;5080172;27;46082;-86
2021/05/31 08:38:58;;;;;;;;;14.00;9.33;;;;;22.00;41.28;101651.06;5078834;27;45281;-84
2021/05/31 08:41:27;;;;;;;;;8.67;8.00;;;;;22.29;40.69;101631.81;5079334;27;45385;-84
2021/05/31 08:43:53;;;;;;;;;7.00;7.00;;;;;22.72;39.57;101649.84;5078908;27;45514;-85
2021/05/31 08:46:19;;;;;;;;;8.00;8.00;;;;;23.30;39.51;101630.81;5079156;28;45357;-85
2021/05/31 08:48:44;;;;;;;;;8.67;7.00;;;;;24.93;38.01;101623.22;5086683;27;45268;-85
2021/05/31 08:51:10;;;;;;;;;7.00;6.00;;;;;27.98;35.10;101628.81;5083789;28;45308;-87
2021/05/31 08:53:36;;;;;;;;;6.67;5.67;;;;;31.04;32.76;101616.97;5080166;27;45437;-88
2021/05/31 08:56:02;;;;;;;;;7.33;7.33;;;;;33.09;30.92;101628.47;5078419;27;45595;-86
2021/05/31 08:58:28;;;;;;;;;8.00;6.67;;;;;32.64;29.37;101626.75;5078546;27;45307;-84
2021/05/31 09:00:54;;;;;;;;;7.33;7.00;;;;;31.59;28.67;101629.31;5079683;28;45383;-87
2021/05/31 09:03:19;;;;;;;;;7.00;7.00;;;;;31.18;28.72;101624.31;5079074;27;45506;-86
2021/05/31 09:05:46;;;;;;;;;8.00;7.00;;;;;31.50;28.35;101622.59;5095073;27;47113;-86
2021/05/31 09:08:11;;;;;;;;;7.00;5.33;;;;;32.24;28.42;101620.06;5078563;27;45259;-88
2021/05/31 09:10:46;;;;;;;;;8.00;8.00;;;;;32.36;28.14;101621.16;5078804;28;45259;-86
2021/05/31 09:13:24;;;;;;;;;11.67;10.00;;;;;32.12;27.53;101616.25;5079756;27;45471;-85
2021/05/31 09:16:03;;;;;;;;;10.67;8.00;;;;;31.84;26.98;101614.28;5085992;27;45292;-85
2021/05/31 09:18:28;;;;;;;;;6.67;6.67;;;;;31.80;26.00;101626.31;5093267;27;45376;-86
2021/05/31 09:20:54;;;;;;;;;7.00;7.00;;;;;31.82;26.78;101621.66;5093351;28;45266;-87
2021/05/31 09:23:19;;;;;;;;;7.00;7.00;;;;;31.88;26.09;101616.72;5095490;28;45356;-87
2021/05/31 09:25:45;;;;;;;;;7.00;6.00;;;;;31.99;26.04;101621.53;5101985;28;45488;-87
2021/05/31 09:28:13;;;;;;;;;6.67;6.00;;;;;32.12;25.98;101599.94;5102655;27;44738;-87
2021/05/31 09:30:41;;;;;;;;;6.33;6.00;;;;;32.76;25.12;101611.50;5103634;28;45355;-87
2021/05/31 09:33:10;;;;;;;;;8.00;6.33;;;;;33.61;24.61;101620.56;5102878;27;44800;-88
2021/05/31 09:35:39;;;;;;;;;8.67;7.00;;;;;33.92;24.50;101612.19;5088297;27;45379;-87
2021/05/31 09:38:05;;;;;;;;;10.67;7.67;;;;;34.02;23.63;101620.59;5084459;27;45163;-87
2021/05/31 09:40:30;;;;;;;;;7.33;6.67;;;;;34.07;24.03;101603.91;5080524;28;45257;-89
2021/05/31 09:42:59;;;;;;;;;5.00;5.00;;;;;34.20;23.34;101621.16;5082419;27;45325;-85
2021/05/31 09:45:26;;;;;;;;;8.00;7.33;;;;;34.74;23.61;101614.75;5078384;28;47247;-88
2021/05/31 09:47:51;;;;;;;;;7.67;6.00;;;;;35.84;22.46;101607.63;5085182;27;45297;-85
2021/05/31 09:50:29;;;;;;;;;6.00;6.00;;;;;37.26;21.88;101613.84;5092543;27;45294;-85
2021/05/31 09:53:07;;;;;;;;;8.67;7.00;;;;;38.06;20.76;101620.91;5092546;28;45274;-85
2021/05/31 09:55:40;;;;;;;;;9.00;8.00;;;;;38.50;20.72;101619.91;5093756;28;46951;-86
2021/05/31 09:58:10;;;;;;;;;7.00;7.00;;;;;38.31;20.79;101624.25;5093224;27;44712;-85
2021/05/31 10:00:37;;;;;;;;;7.67;5.67;;;;;38.02;20.89;101622.16;5081079;28;45376;-87
2021/05/31 10:10:55;;;;;;;;;8.00;6.00;;;;;39.78;18.50;101611.09;5082158;27;45381;-84
2021/05/31 10:13:22;;;;;;;;;7.00;5.33;;;;;41.39;17.06;101607.56;5079182;27;45384;-86
2021/05/31 10:15:48;;;;;;;;;6.00;6.00;;;;;42.42;16.66;101612.69;5079584;27;46975;-88
2021/05/31 10:18:15;;;;;;;;;6.00;6.00;;;;;42.41;17.09;101608.22;5081637;28;45393;-86
2021/05/31 10:20:42;;;;;;;;;6.67;6.67;;;;;41.66;17.47;101606.63;5081221;28;45318;-86
2021/05/31 10:23:09;;;;;;;;;7.33;7.00;;;;;40.88;17.36;101606.13;5082372;27;45538;-90
2021/05/31 10:25:39;;;;;;;;;6.00;6.00;;;;;40.15;17.65;101600.31;5081040;27;45426;-87
2021/05/31 10:28:11;;;;;;;;;6.00;5.67;;;;;39.63;18.03;101585.88;5081356;27;45282;-86
2021/05/31 10:30:46;;;;;;;;;7.67;4.67;;;;;39.90;17.71;101606.28;5080898;27;45317;-89
2021/05/31 10:33:16;;;;;;;;;4.67;4.33;;;;;40.83;17.13;101591.94;5084271;27;45469;-88
2021/05/31 10:35:41;;;;;;;;;6.00;6.00;;;;;42.53;15.50;101601.34;5084576;27;45476;-90
2021/05/31 10:38:15;;;;;;;;;5.00;5.00;;;;;43.96;15.52;101608.00;5081572;27;45357;-90
2021/05/31 10:40:44;;;;;;;;;4.00;4.00;;;;;44.69;14.15;101600.72;5081034;27;45163;-90
2021/05/31 10:43:13;;;;;;;;;6.00;6.00;;;;;44.31;14.33;101605.88;5083369;27;45433;-88
2021/05/31 10:45:40;;;;;;;;;8.33;5.67;;;;;43.38;14.87;101603.34;5088884;27;45451;-91
2021/05/31 10:48:15;;;;;;;;;6.00;6.00;;;;;42.36;15.17;101601.25;5092625;27;45199;-89
2021/05/31 10:50:45;;;;;;;;;8.00;8.00;;;;;41.43;15.58;101587.78;5088070;28;45275;-91
2021/05/31 10:53:17;;;;;;;;;7.33;5.33;;;;;40.95;15.95;101587.09;5082993;27;45389;-88
2021/05/31 10:56:07;;;;;;;;;7.00;6.00;;;;;41.25;15.13;101584.16;5081184;27;46158;-89
2021/05/31 10:58:46;;;;;;;;;4.00;4.00;;;;;42.39;13.61;101582.66;5080785;28;45235;-91
2021/05/31 11:01:20;;;;;;;;;4.00;4.00;;;;;44.10;13.95;101588.97;5080952;27;45436;-91
2021/05/31 11:03:59;;;;;;;;;6.00;5.00;;;;;45.68;13.27;101581.69;5080958;27;45344;-92
2021/05/31 11:06:28;;;;;;;;;5.67;4.00;;;;;45.33;12.42;101574.69;5080765;27;46078;-89
2021/05/31 11:08:56;;;;;;;;;7.00;6.00;;;;;43.11;13.82;101570.25;5080605;28;45339;-91
2021/05/31 11:11:49;;;;;;;;;6.33;5.33;;;;;41.19;14.40;101560.81;5080829;28;45267;-90
2021/05/31 11:14:17;;;;;;;;;6.67;6.67;;;;;39.59;15.45;101565.19;5079488;28;45487;-91
2021/05/31 11:16:54;;;;;;;;;7.00;5.33;;;;;38.49;16.03;101555.00;5080553;28;46292;-89
2021/05/31 11:19:39;;;;;;;;;6.67;5.67;;;;;37.52;16.62;101551.38;5080650;27;45345;-88
2021/05/31 11:22:26;;;;;;;;;5.33;4.67;;;;;36.75;16.25;101543.06;5080802;28;45453;-92
2021/05/31 11:24:56;;;;;;;;;5.00;4.00;;;;;36.12;17.33;101539.81;5080749;28;45377;-86
2021/05/31 11:27:29;;;;;;;;;7.00;5.00;;;;;35.66;17.49;101536.94;5079555;27;46132;-90
2021/05/31 11:29:55;;;;;;;;;5.33;4.33;;;;;35.24;17.91;101540.97;5082762;28;45239;-90
2021/05/31 11:32:20;;;;;;;;;4.00;4.00;;;;;34.88;18.07;101531.88;5082633;27;45337;-90
2021/05/31 11:35:13;;;;;;;;;5.67;5.67;;;;;34.51;18.29;101528.09;5082744;28;45259;-89
2021/05/31 11:37:40;;;;;;;;;6.67;6.67;;;;;34.22;18.50;101525.59;5079874;27;45415;-87
2021/05/31 11:40:16;;;;;;;;;7.67;6.00;;;;;33.94;19.30;101514.78;5088143;27;45321;-86
2021/05/31 11:42:47;;;;;;;;;5.67;5.67;;;;;33.72;18.81;101523.59;5094231;28;45177;-88
2021/05/31 11:45:13;;;;;;;;;4.00;4.00;;;;;33.52;19.18;101520.38;5095818;28;44687;-87
2021/05/31 11:47:38;;;;;;;;;4.00;4.00;;;;;33.32;18.77;101517.16;5095534;28;45435;-88